createdAt,value
2018-12-02T00:01:47.442Z,7.91
2018-12-02T00:06:49.945Z,7.99
2018-12-02T00:11:52.329Z,7.94
2018-12-02T00:16:55.546Z,7.97
2018-12-02T00:21:58.403Z,8.05
2018-12-02T00:27:01.006Z,7.99
2018-12-02T00:32:03.559Z,8.12
2018-12-02T00:37:06.327Z,8.08
2018-12-02T00:42:08.783Z,8.14
2018-12-02T00:47:11.186Z,8.17
2018-12-02T00:52:13.785Z,8.15
2018-12-02T00:57:16.207Z,8.15
2018-12-02T01:02:18.581Z,8.19
2018-12-02T01:07:21.074Z,8.22
2018-12-02T01:12:23.439Z,8.23
2018-12-02T01:17:25.866Z,8.21
2018-12-02T01:22:28.274Z,8.19
2018-12-02T01:27:30.796Z,8.21
2018-12-02T01:32:33.290Z,8.14
2018-12-02T01:37:35.886Z,8.20
2018-12-02T01:42:38.833Z,8.16
2018-12-02T01:47:41.347Z,8.09
2018-12-02T01:52:44.758Z,7.94
2018-12-02T01:57:47.312Z,7.75
2018-12-02T02:02:50.105Z,7.63
2018-12-02T02:07:52.833Z,7.59
2018-12-02T02:12:55.371Z,7.51
2018-12-02T02:17:57.884Z,7.50
2018-12-02T02:23:00.635Z,7.44
2018-12-02T02:28:03.507Z,7.45
2018-12-02T02:33:05.930Z,7.43
2018-12-02T02:38:08.350Z,7.43
2018-12-02T02:43:10.865Z,7.47
2018-12-02T02:48:13.312Z,7.48
2018-12-02T02:53:16.153Z,7.53
2018-12-02T02:58:18.587Z,7.50
2018-12-02T03:03:21.036Z,7.62
2018-12-02T03:08:23.469Z,7.62
2018-12-02T03:13:25.951Z,7.71
2018-12-02T03:18:28.418Z,7.77
2018-12-02T03:23:30.856Z,7.86
2018-12-02T03:28:33.309Z,7.93
2018-12-02T03:33:35.846Z,7.97
2018-12-02T03:38:38.316Z,8.01
2018-12-02T03:43:40.706Z,8.11
2018-12-02T03:48:43.061Z,8.07
2018-12-02T03:53:45.617Z,8.09
2018-12-02T03:58:47.994Z,8.09
2018-12-02T04:03:50.436Z,8.06
2018-12-02T04:08:52.859Z,7.90
2018-12-02T04:13:55.226Z,7.83
2018-12-02T04:18:57.657Z,7.74
2018-12-02T04:24:00.135Z,7.74
2018-12-02T04:29:02.633Z,7.63
2018-12-02T04:34:05.301Z,7.59
2018-12-02T04:39:08.573Z,7.57
2018-12-02T04:44:10.996Z,7.56
2018-12-02T04:49:13.451Z,7.55
2018-12-02T04:54:16.022Z,7.52
2018-12-02T04:59:18.645Z,7.49
2018-12-02T05:04:21.087Z,7.50
2018-12-02T05:09:24.118Z,7.47
2018-12-02T05:14:26.530Z,7.46
2018-12-02T05:19:28.954Z,7.42
2018-12-02T05:24:32.018Z,7.39
2018-12-02T05:29:34.401Z,7.42
2018-12-02T05:34:36.872Z,7.39
2018-12-02T05:39:39.541Z,7.41
2018-12-02T05:44:42.036Z,7.42
2018-12-02T05:49:44.601Z,7.42
2018-12-02T05:54:47.177Z,7.41
2018-12-02T05:59:49.593Z,7.40
2018-12-02T06:04:52.005Z,7.45
2018-12-02T06:09:54.370Z,7.45
2018-12-02T06:14:56.751Z,7.46
2018-12-02T06:20:04.538Z,7.47
2018-12-02T06:25:02.794Z,7.48
2018-12-02T06:30:11.189Z,7.50
2018-12-02T06:35:14.227Z,7.51
2018-12-02T06:40:22.800Z,7.48
2018-12-02T06:45:25.277Z,7.55
2018-12-02T06:50:27.904Z,7.52
2018-12-02T06:55:41.277Z,7.53
2018-12-02T07:01:22.813Z,7.56
2018-12-02T07:06:25.242Z,7.54
2018-12-02T07:11:27.712Z,7.57
2018-12-02T07:16:30.186Z,7.59
2018-12-02T07:21:37.452Z,7.59
2018-12-02T07:26:41.907Z,7.61
2018-12-02T07:31:44.400Z,7.59
2018-12-02T07:36:46.962Z,7.62
2018-12-02T07:41:49.418Z,7.60
2018-12-02T07:46:51.808Z,7.60
2018-12-02T07:51:54.259Z,7.58
2018-12-02T07:56:56.688Z,7.59
2018-12-02T08:01:59.102Z,7.58
2018-12-02T08:07:01.630Z,7.59
2018-12-02T08:12:04.359Z,7.62
2018-12-02T08:17:07.018Z,7.62
2018-12-02T08:22:09.441Z,7.65
2018-12-02T08:27:11.925Z,7.62
2018-12-02T08:32:14.403Z,7.63
2018-12-02T08:37:16.864Z,7.68
2018-12-02T08:42:19.286Z,7.72
2018-12-02T08:47:22.327Z,7.76
2018-12-02T08:52:24.761Z,7.81
2018-12-02T08:57:27.283Z,7.94
2018-12-02T09:02:29.711Z,7.98
2018-12-02T09:07:32.495Z,7.97
2018-12-02T09:12:35.437Z,7.98
2018-12-02T09:17:37.912Z,8.00
2018-12-02T09:22:40.425Z,7.99
2018-12-02T09:27:43.385Z,8.01
2018-12-02T09:32:45.920Z,8.03
2018-12-02T09:37:48.450Z,8.07
2018-12-02T09:42:52.114Z,8.09
2018-12-02T09:47:55.750Z,8.10
2018-12-02T09:52:58.155Z,8.09
2018-12-02T09:58:00.640Z,8.11
2018-12-02T10:03:03.181Z,8.12
2018-12-02T10:08:05.715Z,8.17
2018-12-02T10:13:09.757Z,8.20
2018-12-02T10:18:12.423Z,8.27
2018-12-02T10:23:14.919Z,8.26
2018-12-02T10:28:17.378Z,8.28
2018-12-02T10:33:19.886Z,8.28
2018-12-02T10:38:22.436Z,8.33
2018-12-02T10:43:25.007Z,8.31
2018-12-02T10:48:27.452Z,8.33
2018-12-02T10:53:29.939Z,8.39
2018-12-02T10:58:33.331Z,8.45
2018-12-02T11:03:36.415Z,8.48
2018-12-02T11:08:38.890Z,8.53
2018-12-02T11:13:42.486Z,8.62
2018-12-02T11:18:45.098Z,8.66
2018-12-02T11:23:47.726Z,8.69
2018-12-02T11:28:50.525Z,8.77
2018-12-02T11:33:53.243Z,8.80
2018-12-02T11:38:55.779Z,8.86
2018-12-02T11:43:58.242Z,8.93
2018-12-02T11:49:00.728Z,8.98
2018-12-02T11:54:03.239Z,9.04
2018-12-02T11:59:05.678Z,9.11
2018-12-02T12:04:08.605Z,9.10
2018-12-02T12:09:11.061Z,9.10
2018-12-02T12:14:13.554Z,9.18
2018-12-02T12:19:16.069Z,9.19
2018-12-02T12:24:18.519Z,9.27
2018-12-02T12:29:21.042Z,9.38
2018-12-02T12:34:23.557Z,9.54
2018-12-02T12:39:26.112Z,9.66
2018-12-02T12:44:28.583Z,9.81
2018-12-02T12:49:31.049Z,9.85
2018-12-02T12:54:33.563Z,9.91
2018-12-02T12:59:36.005Z,9.91
2018-12-02T13:04:38.470Z,9.99
2018-12-02T13:09:41.074Z,9.98
2018-12-02T13:14:43.555Z,10.00
2018-12-02T13:19:46.048Z,10.07
2018-12-02T13:24:48.464Z,10.11
2018-12-02T13:29:51.152Z,10.09
2018-12-02T13:34:53.579Z,10.16
2018-12-02T13:39:56.006Z,10.22
2018-12-02T13:44:58.560Z,10.28
2018-12-02T13:50:01.419Z,10.39
2018-12-02T13:55:04.435Z,10.47
2018-12-02T14:00:12.715Z,10.53
2018-12-02T14:05:15.182Z,10.52
2018-12-02T14:10:18.482Z,10.66
2018-12-02T14:17:29.527Z,10.65
2018-12-02T14:22:31.981Z,10.70
2018-12-02T14:27:34.439Z,10.78
2018-12-02T14:32:36.851Z,10.96
2018-12-02T14:37:39.623Z,10.87
2018-12-02T14:42:45.953Z,10.89
2018-12-02T14:47:48.431Z,10.94
2018-12-02T14:52:51.009Z,10.86
2018-12-02T14:57:53.424Z,11.23
2018-12-02T15:02:55.870Z,11.08
2018-12-02T15:07:58.343Z,11.13
2018-12-02T15:13:00.833Z,11.17
2018-12-02T15:18:03.391Z,11.30
2018-12-02T15:23:06.415Z,11.16
2018-12-02T15:28:08.973Z,11.10
2018-12-02T15:33:11.478Z,11.04
2018-12-02T15:38:14.026Z,11.11
2018-12-02T15:43:16.459Z,11.06
2018-12-02T15:48:18.919Z,11.08
2018-12-02T15:53:21.359Z,11.15
2018-12-02T15:58:24.194Z,11.15
2018-12-02T16:03:26.645Z,11.12
2018-12-02T16:08:29.115Z,11.19
2018-12-02T16:13:31.509Z,11.21
2018-12-02T16:18:34.015Z,11.08
2018-12-02T16:23:36.515Z,11.06
2018-12-02T16:28:38.958Z,11.08
2018-12-02T16:33:41.696Z,11.09
2018-12-02T16:38:44.187Z,11.07
2018-12-02T16:43:46.682Z,11.07
2018-12-02T16:48:49.113Z,11.02
2018-12-02T16:53:51.583Z,11.03
2018-12-02T16:58:58.298Z,11.04
2018-12-02T17:04:01.915Z,11.02
2018-12-02T17:09:08.014Z,10.87
2018-12-02T17:14:10.455Z,11.04
2018-12-02T17:19:13.418Z,11.07
2018-12-02T17:24:18.433Z,11.07
2018-12-02T17:29:22.639Z,11.06
2018-12-02T17:34:25.156Z,11.05
2018-12-02T17:39:29.399Z,10.99
2018-12-02T17:44:31.919Z,11.19
2018-12-02T17:49:34.555Z,11.15
2018-12-02T17:54:37.981Z,11.06
2018-12-02T17:59:40.564Z,10.94
2018-12-02T18:04:43.123Z,10.94
2018-12-02T18:09:45.732Z,10.96
2018-12-02T18:14:48.511Z,10.91
2018-12-02T18:19:51.343Z,10.93
2018-12-02T18:24:56.289Z,11.00
2018-12-02T18:29:58.782Z,11.00
2018-12-02T18:35:01.255Z,11.01
2018-12-02T18:40:04.265Z,11.00
2018-12-02T18:45:11.320Z,10.99
2018-12-02T18:50:13.782Z,10.97
2018-12-02T18:55:16.319Z,11.04
2018-12-02T19:00:24.201Z,11.05
2018-12-02T19:05:26.695Z,11.09
2018-12-02T19:10:30.657Z,11.19
2018-12-02T19:15:33.294Z,11.13
2018-12-02T19:20:36.215Z,11.18
2018-12-02T19:25:38.664Z,11.19
2018-12-02T19:30:41.215Z,11.22
2018-12-02T19:35:43.737Z,11.22
2018-12-02T19:40:46.655Z,11.19
2018-12-02T19:45:56.251Z,11.26
2018-12-02T19:50:58.863Z,11.22
2018-12-02T19:56:01.857Z,11.32
2018-12-02T20:01:05.076Z,11.25
2018-12-02T20:06:07.898Z,11.30
2018-12-02T20:11:11.243Z,11.40
2018-12-02T20:16:16.948Z,11.26
2018-12-02T20:21:23.031Z,11.27
2018-12-02T20:26:25.859Z,11.30
2018-12-02T20:31:29.313Z,11.20
2018-12-02T20:36:32.100Z,11.17
2018-12-02T20:41:34.870Z,11.17
2018-12-02T20:46:38.312Z,11.11
2018-12-02T20:51:41.145Z,11.15
2018-12-02T20:56:43.711Z,11.12
2018-12-02T21:01:46.489Z,11.12
2018-12-02T21:06:49.176Z,11.22
2018-12-02T21:11:52.019Z,11.13
2018-12-02T21:16:55.035Z,11.20
2018-12-02T21:21:57.751Z,11.19
2018-12-02T21:27:00.353Z,11.21
2018-12-02T21:32:02.900Z,11.22
2018-12-02T21:37:05.438Z,11.20
2018-12-02T21:42:07.941Z,11.25
2018-12-02T21:47:10.390Z,11.03
2018-12-02T21:52:12.918Z,11.25
2018-12-02T21:57:15.728Z,11.24
2018-12-02T22:02:18.247Z,11.25
2018-12-02T22:07:20.911Z,11.19
2018-12-02T22:12:24.019Z,11.24
2018-12-02T22:17:26.609Z,11.19
2018-12-02T22:22:29.252Z,11.22
2018-12-02T22:27:31.685Z,11.22
2018-12-02T22:32:34.238Z,11.21
2018-12-02T22:37:36.663Z,11.27
2018-12-02T22:42:39.191Z,11.23
2018-12-02T22:47:41.670Z,11.25
2018-12-02T22:52:45.430Z,11.23
2018-12-02T22:57:47.987Z,11.18
2018-12-02T23:02:58.014Z,11.26
2018-12-02T23:08:00.719Z,11.19
2018-12-02T23:13:03.210Z,11.23
2018-12-02T23:18:06.867Z,11.29
2018-12-02T23:23:09.246Z,11.29
2018-12-02T23:28:11.670Z,11.27
2018-12-02T23:33:14.131Z,11.29
2018-12-02T23:38:16.536Z,11.34
2018-12-02T23:43:19.027Z,11.30
2018-12-02T23:48:21.476Z,11.34
2018-12-02T23:53:23.998Z,11.36
2018-12-02T23:58:26.474Z,11.31
